sensor_id;sensor_type;location;lat;lon;timestamp;P1;durP1;ratioP1;P2;durP2;ratioP2
21581;SDS011;10952;50.836;4.348;2023-03-14T00:01:24;7.20;;;1.47;;
21581;SDS011;10952;50.836;4.348;2023-03-14T00:03:50;7.67;;;1.33;;
21581;SDS011;10952;50.836;4.348;2023-03-14T00:06:16;7.10;;;1.43;;
21581;SDS011;10952;50.836;4.348;2023-03-14T00:08:46;10.03;;;2.50;;
21581;SDS011;10952;50.836;4.348;2023-03-14T00:23:50;10.30;;;1.97;;
21581;SDS011;10952;50.836;4.348;2023-03-14T00:26:20;9.37;;;2.67;;
21581;SDS011;10952;50.836;4.348;2023-03-14T00:28:50;10.50;;;1.70;;
21581;SDS011;10952;50.836;4.348;2023-03-14T00:33:51;8.97;;;1.90;;
21581;SDS011;10952;50.836;4.348;2023-03-14T00:36:21;8.40;;;2.33;;
21581;SDS011;10952;50.836;4.348;2023-03-14T00:47:16;9.33;;;1.90;;
21581;SDS011;10952;50.836;4.348;2023-03-14T00:49:45;13.87;;;2.50;;
21581;SDS011;10952;50.836;4.348;2023-03-14T00:52:15;9.27;;;1.80;;
21581;SDS011;10952;50.836;4.348;2023-03-14T00:57:11;15.27;;;1.90;;
21581;SDS011;10952;50.836;4.348;2023-03-14T00:59:38;13.37;;;2.17;;
21581;SDS011;10952;50.836;4.348;2023-03-14T01:02:03;10.93;;;2.00;;
21581;SDS011;10952;50.836;4.348;2023-03-14T01:04:32;8.73;;;1.93;;
21581;SDS011;10952;50.836;4.348;2023-03-14T01:07:00;12.13;;;2.30;;
21581;SDS011;10952;50.836;4.348;2023-03-14T01:12:21;9.37;;;2.50;;
21581;SDS011;10952;50.836;4.348;2023-03-14T01:17:26;12.40;;;2.50;;
21581;SDS011;10952;50.836;4.348;2023-03-14T01:19:52;13.93;;;1.80;;
21581;SDS011;10952;50.836;4.348;2023-03-14T01:24:50;15.10;;;2.00;;
21581;SDS011;10952;50.836;4.348;2023-03-14T01:29:47;12.00;;;1.93;;
21581;SDS011;10952;50.836;4.348;2023-03-14T01:34:49;13.53;;;1.83;;
21581;SDS011;10952;50.836;4.348;2023-03-14T01:37:19;7.80;;;2.07;;
21581;SDS011;10952;50.836;4.348;2023-03-14T01:42:16;14.17;;;2.17;;
21581;SDS011;10952;50.836;4.348;2023-03-14T01:44:54;14.47;;;1.73;;
21581;SDS011;10952;50.836;4.348;2023-03-14T01:47:25;8.07;;;1.77;;
21581;SDS011;10952;50.836;4.348;2023-03-14T01:50:06;11.20;;;1.80;;
21581;SDS011;10952;50.836;4.348;2023-03-14T01:52:36;8.03;;;1.43;;
21581;SDS011;10952;50.836;4.348;2023-03-14T01:55:21;10.37;;;1.70;;
21581;SDS011;10952;50.836;4.348;2023-03-14T01:57:51;6.63;;;1.20;;
21581;SDS011;10952;50.836;4.348;2023-03-14T02:00:21;7.07;;;1.20;;
21581;SDS011;10952;50.836;4.348;2023-03-14T02:02:50;9.73;;;1.17;;
21581;SDS011;10952;50.836;4.348;2023-03-14T02:05:25;5.87;;;0.93;;
21581;SDS011;10952;50.836;4.348;2023-03-14T02:10:27;4.80;;;0.90;;
21581;SDS011;10952;50.836;4.348;2023-03-14T02:12:56;2.90;;;0.90;;
21581;SDS011;10952;50.836;4.348;2023-03-14T02:17:55;5.13;;;1.07;;
21581;SDS011;10952;50.836;4.348;2023-03-14T02:20:32;3.90;;;0.80;;
21581;SDS011;10952;50.836;4.348;2023-03-14T02:23:31;7.13;;;1.03;;
21581;SDS011;10952;50.836;4.348;2023-03-14T02:26:43;10.93;;;1.27;;
21581;SDS011;10952;50.836;4.348;2023-03-14T02:29:11;4.73;;;1.00;;
21581;SDS011;10952;50.836;4.348;2023-03-14T02:34:08;7.67;;;1.00;;
21581;SDS011;10952;50.836;4.348;2023-03-14T02:39:16;3.53;;;0.90;;
21581;SDS011;10952;50.836;4.348;2023-03-14T02:41:53;6.47;;;1.17;;
21581;SDS011;10952;50.836;4.348;2023-03-14T02:44:19;4.53;;;1.20;;
21581;SDS011;10952;50.836;4.348;2023-03-14T02:46:44;10.03;;;2.00;;
21581;SDS011;10952;50.836;4.348;2023-03-14T02:49:13;7.60;;;1.93;;
21581;SDS011;10952;50.836;4.348;2023-03-14T02:51:45;9.07;;;2.40;;
21581;SDS011;10952;50.836;4.348;2023-03-14T02:56:42;14.30;;;2.93;;
21581;SDS011;10952;50.836;4.348;2023-03-14T02:59:08;8.90;;;2.97;;
21581;SDS011;10952;50.836;4.348;2023-03-14T03:01:34;10.83;;;2.90;;
21581;SDS011;10952;50.836;4.348;2023-03-14T03:04:01;12.33;;;3.00;;
21581;SDS011;10952;50.836;4.348;2023-03-14T03:06:28;11.87;;;3.63;;
21581;SDS011;10952;50.836;4.348;2023-03-14T03:08:54;12.70;;;3.00;;
21581;SDS011;10952;50.836;4.348;2023-03-14T03:11:20;11.43;;;2.97;;
21581;SDS011;10952;50.836;4.348;2023-03-14T03:16:19;12.07;;;2.80;;
21581;SDS011;10952;50.836;4.348;2023-03-14T03:18:44;10.37;;;2.90;;
21581;SDS011;10952;50.836;4.348;2023-03-14T03:21:17;10.63;;;3.00;;
21581;SDS011;10952;50.836;4.348;2023-03-14T03:30:08;16.07;;;3.37;;
21581;SDS011;10952;50.836;4.348;2023-03-14T03:32:37;12.13;;;3.13;;
21581;SDS011;10952;50.836;4.348;2023-03-14T03:35:03;12.93;;;3.83;;
21581;SDS011;10952;50.836;4.348;2023-03-14T03:37:31;13.80;;;3.57;;
21581;SDS011;10952;50.836;4.348;2023-03-14T03:40:00;13.23;;;4.50;;
21581;SDS011;10952;50.836;4.348;2023-03-14T03:42:29;15.40;;;4.27;;
21581;SDS011;10952;50.836;4.348;2023-03-14T03:44:58;13.90;;;4.20;;
21581;SDS011;10952;50.836;4.348;2023-03-14T03:47:29;14.47;;;4.50;;
21581;SDS011;10952;50.836;4.348;2023-03-14T03:55:50;14.30;;;4.73;;
21581;SDS011;10952;50.836;4.348;2023-03-14T04:06:13;8.53;;;3.30;;
21581;SDS011;10952;50.836;4.348;2023-03-14T04:08:48;9.80;;;3.50;;
21581;SDS011;10952;50.836;4.348;2023-03-14T04:11:31;13.70;;;3.80;;
21581;SDS011;10952;50.836;4.348;2023-03-14T04:13:59;13.87;;;4.47;;
21581;SDS011;10952;50.836;4.348;2023-03-14T04:16:28;15.73;;;3.93;;
21581;SDS011;10952;50.836;4.348;2023-03-14T04:18:57;11.80;;;3.40;;
21581;SDS011;10952;50.836;4.348;2023-03-14T04:23:56;8.80;;;3.30;;
21581;SDS011;10952;50.836;4.348;2023-03-14T04:26:27;11.40;;;3.80;;
21581;SDS011;10952;50.836;4.348;2023-03-14T04:28:53;12.77;;;3.90;;
21581;SDS011;10952;50.836;4.348;2023-03-14T04:33:51;9.83;;;3.30;;
21581;SDS011;10952;50.836;4.348;2023-03-14T04:36:22;11.87;;;3.27;;
21581;SDS011;10952;50.836;4.348;2023-03-14T04:38:50;10.87;;;3.00;;
21581;SDS011;10952;50.836;4.348;2023-03-14T04:41:16;9.50;;;2.97;;
21581;SDS011;10952;50.836;4.348;2023-03-14T04:43:41;9.27;;;2.80;;
21581;SDS011;10952;50.836;4.348;2023-03-14T04:46:08;6.10;;;2.27;;
21581;SDS011;10952;50.836;4.348;2023-03-14T04:48:35;5.30;;;2.30;;
21581;SDS011;10952;50.836;4.348;2023-03-14T04:53:57;11.40;;;3.10;;
21581;SDS011;10952;50.836;4.348;2023-03-14T04:59:21;6.77;;;1.90;;
21581;SDS011;10952;50.836;4.348;2023-03-14T05:01:48;5.53;;;1.87;;
21581;SDS011;10952;50.836;4.348;2023-03-14T05:04:16;5.17;;;2.00;;
21581;SDS011;10952;50.836;4.348;2023-03-14T05:06:45;4.73;;;2.17;;
21581;SDS011;10952;50.836;4.348;2023-03-14T05:09:14;7.17;;;2.53;;
21581;SDS011;10952;50.836;4.348;2023-03-14T05:14:09;9.43;;;2.60;;
21581;SDS011;10952;50.836;4.348;2023-03-14T05:16:38;7.07;;;2.17;;
21581;SDS011;10952;50.836;4.348;2023-03-14T05:21:36;4.53;;;2.07;;
21581;SDS011;10952;50.836;4.348;2023-03-14T05:24:05;5.57;;;2.40;;
21581;SDS011;10952;50.836;4.348;2023-03-14T05:26:34;5.30;;;2.33;;
21581;SDS011;10952;50.836;4.348;2023-03-14T05:29:01;8.00;;;2.70;;
21581;SDS011;10952;50.836;4.348;2023-03-14T05:34:02;5.77;;;2.47;;
21581;SDS011;10952;50.836;4.348;2023-03-14T05:36:35;5.67;;;2.60;;
21581;SDS011;10952;50.836;4.348;2023-03-14T05:41:36;3.37;;;2.20;;
21581;SDS011;10952;50.836;4.348;2023-03-14T05:46:36;6.63;;;2.60;;
21581;SDS011;10952;50.836;4.348;2023-03-14T05:49:04;8.30;;;3.10;;
21581;SDS011;10952;50.836;4.348;2023-03-14T05:51:30;6.03;;;2.70;;
21581;SDS011;10952;50.836;4.348;2023-03-14T05:53:55;4.63;;;2.53;;
21581;SDS011;10952;50.836;4.348;2023-03-14T05:56:24;7.40;;;3.27;;
21581;SDS011;10952;50.836;4.348;2023-03-14T05:58:50;7.33;;;3.00;;
21581;SDS011;10952;50.836;4.348;2023-03-14T06:01:15;5.97;;;2.57;;
21581;SDS011;10952;50.836;4.348;2023-03-14T06:03:42;6.33;;;3.03;;
21581;SDS011;10952;50.836;4.348;2023-03-14T06:06:08;6.87;;;2.43;;
21581;SDS011;10952;50.836;4.348;2023-03-14T06:08:34;3.47;;;2.57;;
21581;SDS011;10952;50.836;4.348;2023-03-14T06:11:02;4.43;;;2.50;;
21581;SDS011;10952;50.836;4.348;2023-03-14T06:13:28;5.27;;;2.40;;
21581;SDS011;10952;50.836;4.348;2023-03-14T06:15:54;5.17;;;2.63;;
21581;SDS011;10952;50.836;4.348;2023-03-14T06:18:21;6.07;;;2.83;;
21581;SDS011;10952;50.836;4.348;2023-03-14T06:20:48;5.80;;;2.57;;
21581;SDS011;10952;50.836;4.348;2023-03-14T06:23:13;5.10;;;2.83;;
21581;SDS011;10952;50.836;4.348;2023-03-14T06:25:41;6.80;;;2.63;;
21581;SDS011;10952;50.836;4.348;2023-03-14T06:28:08;9.93;;;3.50;;
21581;SDS011;10952;50.836;4.348;2023-03-14T06:30:36;5.57;;;3.30;;
21581;SDS011;10952;50.836;4.348;2023-03-14T06:33:05;6.47;;;3.87;;
21581;SDS011;10952;50.836;4.348;2023-03-14T06:35:31;5.40;;;3.07;;
21581;SDS011;10952;50.836;4.348;2023-03-14T06:37:59;5.53;;;3.63;;
21581;SDS011;10952;50.836;4.348;2023-03-14T06:40:24;5.13;;;2.70;;
21581;SDS011;10952;50.836;4.348;2023-03-14T06:42:52;6.13;;;2.53;;
21581;SDS011;10952;50.836;4.348;2023-03-14T06:45:20;7.20;;;3.10;;
21581;SDS011;10952;50.836;4.348;2023-03-14T06:47:49;2.90;;;1.93;;
21581;SDS011;10952;50.836;4.348;2023-03-14T06:50:19;5.60;;;2.00;;
21581;SDS011;10952;50.836;4.348;2023-03-14T06:59:25;5.67;;;2.90;;
21581;SDS011;10952;50.836;4.348;2023-03-14T07:01:51;1.90;;;1.57;;
21581;SDS011;10952;50.836;4.348;2023-03-14T07:04:21;5.83;;;2.50;;
21581;SDS011;10952;50.836;4.348;2023-03-14T07:06:48;4.60;;;2.60;;
21581;SDS011;10952;50.836;4.348;2023-03-14T07:12:36;5.33;;;1.93;;
21581;SDS011;10952;50.836;4.348;2023-03-14T07:18:29;1.70;;;1.30;;
21581;SDS011;10952;50.836;4.348;2023-03-14T07:21:06;5.47;;;1.90;;
21581;SDS011;10952;50.836;4.348;2023-03-14T07:23:37;2.17;;;1.40;;
21581;SDS011;10952;50.836;4.348;2023-03-14T07:26:09;4.73;;;2.23;;
21581;SDS011;10952;50.836;4.348;2023-03-14T07:28:38;4.00;;;1.60;;
21581;SDS011;10952;50.836;4.348;2023-03-14T07:31:10;5.23;;;2.07;;
21581;SDS011;10952;50.836;4.348;2023-03-14T07:33:38;4.93;;;2.13;;
21581;SDS011;10952;50.836;4.348;2023-03-14T07:36:04;9.60;;;4.23;;
21581;SDS011;10952;50.836;4.348;2023-03-14T07:38:32;6.27;;;2.27;;
21581;SDS011;10952;50.836;4.348;2023-03-14T07:41:00;7.33;;;2.93;;
21581;SDS011;10952;50.836;4.348;2023-03-14T07:43:30;6.30;;;2.70;;
21581;SDS011;10952;50.836;4.348;2023-03-14T07:45:58;5.60;;;2.50;;
21581;SDS011;10952;50.836;4.348;2023-03-14T07:48:26;5.87;;;2.30;;
21581;SDS011;10952;50.836;4.348;2023-03-14T07:50:53;4.43;;;2.33;;
21581;SDS011;10952;50.836;4.348;2023-03-14T07:53:22;8.87;;;3.50;;
21581;SDS011;10952;50.836;4.348;2023-03-14T07:55:50;12.53;;;3.23;;
21581;SDS011;10952;50.836;4.348;2023-03-14T07:58:17;9.27;;;3.40;;
21581;SDS011;10952;50.836;4.348;2023-03-14T08:00:44;4.17;;;2.10;;
21581;SDS011;10952;50.836;4.348;2023-03-14T08:03:09;11.27;;;3.90;;
21581;SDS011;10952;50.836;4.348;2023-03-14T08:05:38;10.40;;;4.33;;
21581;SDS011;10952;50.836;4.348;2023-03-14T08:08:23;7.23;;;3.67;;
21581;SDS011;10952;50.836;4.348;2023-03-14T08:10:55;11.90;;;3.77;;
21581;SDS011;10952;50.836;4.348;2023-03-14T08:13:23;10.47;;;3.53;;
21581;SDS011;10952;50.836;4.348;2023-03-14T08:18:34;9.73;;;3.63;;
21581;SDS011;10952;50.836;4.348;2023-03-14T08:24:28;5.87;;;2.50;;
21581;SDS011;10952;50.836;4.348;2023-03-14T08:26:57;8.87;;;3.27;;
21581;SDS011;10952;50.836;4.348;2023-03-14T08:29:22;5.03;;;2.50;;
21581;SDS011;10952;50.836;4.348;2023-03-14T08:31:48;6.10;;;3.00;;
21581;SDS011;10952;50.836;4.348;2023-03-14T08:34:14;6.03;;;2.60;;
21581;SDS011;10952;50.836;4.348;2023-03-14T08:36:41;5.87;;;2.87;;
21581;SDS011;10952;50.836;4.348;2023-03-14T08:39:07;8.97;;;2.93;;
21581;SDS011;10952;50.836;4.348;2023-03-14T08:41:33;7.47;;;2.80;;
21581;SDS011;10952;50.836;4.348;2023-03-14T08:44:05;7.33;;;2.90;;
21581;SDS011;10952;50.836;4.348;2023-03-14T08:46:31;8.40;;;2.53;;
21581;SDS011;10952;50.836;4.348;2023-03-14T08:48:57;8.67;;;2.90;;
21581;SDS011;10952;50.836;4.348;2023-03-14T08:51:22;8.07;;;2.83;;
21581;SDS011;10952;50.836;4.348;2023-03-14T08:53:48;10.67;;;3.03;;
21581;SDS011;10952;50.836;4.348;2023-03-14T08:56:14;5.10;;;2.40;;
21581;SDS011;10952;50.836;4.348;2023-03-14T08:58:39;5.77;;;2.07;;
21581;SDS011;10952;50.836;4.348;2023-03-14T09:01:07;10.23;;;3.10;;
21581;SDS011;10952;50.836;4.348;2023-03-14T09:03:34;7.47;;;3.00;;
21581;SDS011;10952;50.836;4.348;2023-03-14T09:06:04;7.80;;;2.80;;
21581;SDS011;10952;50.836;4.348;2023-03-14T09:08:30;8.23;;;3.23;;
21581;SDS011;10952;50.836;4.348;2023-03-14T09:10:56;6.57;;;3.20;;
21581;SDS011;10952;50.836;4.348;2023-03-14T09:13:22;8.77;;;2.50;;
21581;SDS011;10952;50.836;4.348;2023-03-14T09:15:56;7.40;;;2.77;;
21581;SDS011;10952;50.836;4.348;2023-03-14T09:18:22;12.07;;;3.13;;
21581;SDS011;10952;50.836;4.348;2023-03-14T09:20:48;5.57;;;2.20;;
21581;SDS011;10952;50.836;4.348;2023-03-14T09:23:14;7.77;;;2.40;;
21581;SDS011;10952;50.836;4.348;2023-03-14T09:25:40;12.77;;;3.13;;
21581;SDS011;10952;50.836;4.348;2023-03-14T09:28:06;13.50;;;3.40;;
21581;SDS011;10952;50.836;4.348;2023-03-14T09:30:32;7.17;;;2.20;;
21581;SDS011;10952;50.836;4.348;2023-03-14T09:32:58;7.93;;;2.50;;
21581;SDS011;10952;50.836;4.348;2023-03-14T09:35:24;8.17;;;2.30;;
21581;SDS011;10952;50.836;4.348;2023-03-14T09:37:50;11.07;;;3.03;;
21581;SDS011;10952;50.836;4.348;2023-03-14T09:40:16;5.77;;;1.83;;
21581;SDS011;10952;50.836;4.348;2023-03-14T09:42:44;9.77;;;2.83;;
21581;SDS011;10952;50.836;4.348;2023-03-14T09:45:35;14.83;;;2.70;;
21581;SDS011;10952;50.836;4.348;2023-03-14T09:48:04;7.70;;;2.50;;
21581;SDS011;10952;50.836;4.348;2023-03-14T09:50:36;6.47;;;2.03;;
21581;SDS011;10952;50.836;4.348;2023-03-14T09:53:14;6.83;;;2.63;;
21581;SDS011;10952;50.836;4.348;2023-03-14T09:55:46;8.07;;;2.30;;
21581;SDS011;10952;50.836;4.348;2023-03-14T09:58:16;10.07;;;2.60;;
21581;SDS011;10952;50.836;4.348;2023-03-14T10:00:44;10.83;;;2.13;;
21581;SDS011;10952;50.836;4.348;2023-03-14T10:05:41;9.67;;;3.00;;
21581;SDS011;10952;50.836;4.348;2023-03-14T10:08:11;9.90;;;2.53;;
21581;SDS011;10952;50.836;4.348;2023-03-14T10:10:37;9.00;;;2.57;;
21581;SDS011;10952;50.836;4.348;2023-03-14T10:13:15;9.07;;;3.00;;
21581;SDS011;10952;50.836;4.348;2023-03-14T10:15:58;12.33;;;2.60;;
21581;SDS011;10952;50.836;4.348;2023-03-14T10:18:26;11.13;;;2.47;;
21581;SDS011;10952;50.836;4.348;2023-03-14T10:21:05;7.23;;;2.40;;
21581;SDS011;10952;50.836;4.348;2023-03-14T10:23:34;13.90;;;2.30;;
21581;SDS011;10952;50.836;4.348;2023-03-14T10:26:06;16.43;;;2.00;;
21581;SDS011;10952;50.836;4.348;2023-03-14T10:28:34;8.70;;;2.67;;
21581;SDS011;10952;50.836;4.348;2023-03-14T10:31:02;6.40;;;1.87;;
21581;SDS011;10952;50.836;4.348;2023-03-14T10:33:33;7.63;;;2.20;;
21581;SDS011;10952;50.836;4.348;2023-03-14T10:36:01;7.13;;;2.10;;
21581;SDS011;10952;50.836;4.348;2023-03-14T10:38:29;5.70;;;1.90;;
21581;SDS011;10952;50.836;4.348;2023-03-14T10:40:59;8.17;;;2.37;;
21581;SDS011;10952;50.836;4.348;2023-03-14T10:43:26;8.10;;;2.60;;
21581;SDS011;10952;50.836;4.348;2023-03-14T10:45:57;14.73;;;2.37;;
21581;SDS011;10952;50.836;4.348;2023-03-14T10:48:33;8.43;;;2.83;;
21581;SDS011;10952;50.836;4.348;2023-03-14T10:51:05;11.03;;;2.43;;
21581;SDS011;10952;50.836;4.348;2023-03-14T10:56:07;8.70;;;2.73;;
21581;SDS011;10952;50.836;4.348;2023-03-14T10:58:38;7.00;;;1.83;;
21581;SDS011;10952;50.836;4.348;2023-03-14T11:04:12;8.90;;;2.13;;
21581;SDS011;10952;50.836;4.348;2023-03-14T11:12:29;7.83;;;2.40;;
21581;SDS011;10952;50.836;4.348;2023-03-14T11:20:59;5.23;;;1.87;;
21581;SDS011;10952;50.836;4.348;2023-03-14T11:29:02;4.60;;;0.93;;
21581;SDS011;10952;50.836;4.348;2023-03-14T11:31:41;7.27;;;3.00;;
21581;SDS011;10952;50.836;4.348;2023-03-14T11:36:53;6.13;;;1.00;;
21581;SDS011;10952;50.836;4.348;2023-03-14T11:39:22;4.43;;;1.20;;
21581;SDS011;10952;50.836;4.348;2023-03-14T11:41:51;3.17;;;1.00;;
21581;SDS011;10952;50.836;4.348;2023-03-14T11:44:20;5.07;;;1.20;;
21581;SDS011;10952;50.836;4.348;2023-03-14T11:47:25;5.07;;;1.60;;
21581;SDS011;10952;50.836;4.348;2023-03-14T11:52:32;4.10;;;0.90;;
21581;SDS011;10952;50.836;4.348;2023-03-14T11:57:42;3.37;;;1.60;;
21581;SDS011;10952;50.836;4.348;2023-03-14T12:00:16;4.50;;;1.60;;
21581;SDS011;10952;50.836;4.348;2023-03-14T12:05:53;2.93;;;1.00;;
21581;SDS011;10952;50.836;4.348;2023-03-14T12:11:00;3.20;;;1.03;;
21581;SDS011;10952;50.836;4.348;2023-03-14T12:13:38;3.37;;;1.23;;
21581;SDS011;10952;50.836;4.348;2023-03-14T12:16:10;8.17;;;1.77;;
21581;SDS011;10952;50.836;4.348;2023-03-14T12:18:45;2.97;;;1.10;;
21581;SDS011;10952;50.836;4.348;2023-03-14T12:21:11;3.93;;;1.50;;
21581;SDS011;10952;50.836;4.348;2023-03-14T12:26:22;4.67;;;1.73;;
21581;SDS011;10952;50.836;4.348;2023-03-14T12:36:48;6.13;;;2.37;;
21581;SDS011;10952;50.836;4.348;2023-03-14T12:39:34;10.20;;;3.67;;
21581;SDS011;10952;50.836;4.348;2023-03-14T12:42:15;6.60;;;2.47;;
21581;SDS011;10952;50.836;4.348;2023-03-14T12:50:36;5.23;;;2.67;;
21581;SDS011;10952;50.836;4.348;2023-03-14T13:01:19;7.93;;;2.33;;
21581;SDS011;10952;50.836;4.348;2023-03-14T13:11:54;5.33;;;2.03;;
21581;SDS011;10952;50.836;4.348;2023-03-14T13:14:22;7.80;;;2.30;;
21581;SDS011;10952;50.836;4.348;2023-03-14T13:16:48;4.13;;;1.90;;
21581;SDS011;10952;50.836;4.348;2023-03-14T13:19:17;5.97;;;2.10;;
21581;SDS011;10952;50.836;4.348;2023-03-14T13:21:45;4.03;;;2.17;;
21581;SDS011;10952;50.836;4.348;2023-03-14T13:24:22;9.23;;;2.80;;
21581;SDS011;10952;50.836;4.348;2023-03-14T13:26:52;10.33;;;3.27;;
21581;SDS011;10952;50.836;4.348;2023-03-14T13:31:58;10.97;;;3.23;;
21581;SDS011;10952;50.836;4.348;2023-03-14T13:34:28;12.17;;;3.67;;
21581;SDS011;10952;50.836;4.348;2023-03-14T13:36:55;11.23;;;2.57;;
21581;SDS011;10952;50.836;4.348;2023-03-14T13:39:22;14.70;;;2.90;;
21581;SDS011;10952;50.836;4.348;2023-03-14T13:41:54;18.27;;;3.90;;
21581;SDS011;10952;50.836;4.348;2023-03-14T13:44:25;15.93;;;3.37;;
21581;SDS011;10952;50.836;4.348;2023-03-14T13:46:51;13.50;;;3.50;;
21581;SDS011;10952;50.836;4.348;2023-03-14T13:49:22;16.17;;;3.30;;
21581;SDS011;10952;50.836;4.348;2023-03-14T13:51:50;17.00;;;3.17;;
21581;SDS011;10952;50.836;4.348;2023-03-14T13:54:17;18.27;;;2.87;;
21581;SDS011;10952;50.836;4.348;2023-03-14T13:56:44;17.43;;;3.63;;
21581;SDS011;10952;50.836;4.348;2023-03-14T14:01:49;20.33;;;3.40;;
21581;SDS011;10952;50.836;4.348;2023-03-14T14:04:20;13.97;;;2.73;;
21581;SDS011;10952;50.836;4.348;2023-03-14T14:06:56;13.90;;;3.47;;
21581;SDS011;10952;50.836;4.348;2023-03-14T14:09:30;17.43;;;3.37;;
21581;SDS011;10952;50.836;4.348;2023-03-14T14:17:36;20.53;;;3.47;;
21581;SDS011;10952;50.836;4.348;2023-03-14T14:20:06;16.67;;;2.30;;
21581;SDS011;10952;50.836;4.348;2023-03-14T14:22:39;13.77;;;3.17;;
21581;SDS011;10952;50.836;4.348;2023-03-14T14:25:05;10.30;;;1.70;;
21581;SDS011;10952;50.836;4.348;2023-03-14T14:27:37;12.03;;;2.30;;
21581;SDS011;10952;50.836;4.348;2023-03-14T14:30:22;15.60;;;2.63;;
21581;SDS011;10952;50.836;4.348;2023-03-14T14:32:50;10.23;;;2.50;;
21581;SDS011;10952;50.836;4.348;2023-03-14T14:35:23;10.17;;;2.27;;
21581;SDS011;10952;50.836;4.348;2023-03-14T14:37:57;14.17;;;2.37;;
21581;SDS011;10952;50.836;4.348;2023-03-14T14:40:24;8.87;;;1.70;;
21581;SDS011;10952;50.836;4.348;2023-03-14T14:42:52;18.97;;;2.90;;
21581;SDS011;10952;50.836;4.348;2023-03-14T14:45:19;8.37;;;2.10;;
21581;SDS011;10952;50.836;4.348;2023-03-14T14:47:50;14.43;;;1.70;;
21581;SDS011;10952;50.836;4.348;2023-03-14T14:53:18;4.63;;;1.23;;
21581;SDS011;10952;50.836;4.348;2023-03-14T14:55:52;2.57;;;0.67;;
21581;SDS011;10952;50.836;4.348;2023-03-14T14:58:24;6.33;;;1.30;;
21581;SDS011;10952;50.836;4.348;2023-03-14T15:01:05;3.47;;;1.00;;
21581;SDS011;10952;50.836;4.348;2023-03-14T15:03:37;4.07;;;1.10;;
21581;SDS011;10952;50.836;4.348;2023-03-14T15:06:03;5.00;;;0.80;;
21581;SDS011;10952;50.836;4.348;2023-03-14T15:08:29;0.70;;;0.60;;
21581;SDS011;10952;50.836;4.348;2023-03-14T15:10:55;4.07;;;0.90;;
21581;SDS011;10952;50.836;4.348;2023-03-14T15:13:22;7.73;;;1.27;;
21581;SDS011;10952;50.836;4.348;2023-03-14T15:15:49;1.73;;;0.80;;
21581;SDS011;10952;50.836;4.348;2023-03-14T15:18:21;3.97;;;1.07;;
21581;SDS011;10952;50.836;4.348;2023-03-14T15:20:51;4.30;;;1.13;;
21581;SDS011;10952;50.836;4.348;2023-03-14T15:23:18;3.43;;;1.17;;
21581;SDS011;10952;50.836;4.348;2023-03-14T15:25:44;5.20;;;1.47;;
21581;SDS011;10952;50.836;4.348;2023-03-14T15:30:42;4.97;;;1.40;;
21581;SDS011;10952;50.836;4.348;2023-03-14T15:33:08;5.13;;;1.80;;
21581;SDS011;10952;50.836;4.348;2023-03-14T15:35:35;4.73;;;1.60;;
21581;SDS011;10952;50.836;4.348;2023-03-14T15:38:01;5.87;;;1.53;;
21581;SDS011;10952;50.836;4.348;2023-03-14T15:40:28;10.03;;;2.17;;
21581;SDS011;10952;50.836;4.348;2023-03-14T15:42:53;8.10;;;1.27;;
21581;SDS011;10952;50.836;4.348;2023-03-14T15:45:19;6.37;;;1.40;;
21581;SDS011;10952;50.836;4.348;2023-03-14T15:47:45;5.47;;;1.07;;
21581;SDS011;10952;50.836;4.348;2023-03-14T15:50:10;6.17;;;1.50;;
21581;SDS011;10952;50.836;4.348;2023-03-14T15:52:36;7.03;;;1.40;;
21581;SDS011;10952;50.836;4.348;2023-03-14T15:55:02;5.23;;;1.73;;
21581;SDS011;10952;50.836;4.348;2023-03-14T15:57:28;4.00;;;1.20;;
21581;SDS011;10952;50.836;4.348;2023-03-14T15:59:53;5.13;;;1.37;;
21581;SDS011;10952;50.836;4.348;2023-03-14T16:02:19;7.13;;;1.43;;
21581;SDS011;10952;50.836;4.348;2023-03-14T16:04:45;4.97;;;1.90;;
21581;SDS011;10952;50.836;4.348;2023-03-14T16:07:10;4.83;;;1.43;;
21581;SDS011;10952;50.836;4.348;2023-03-14T16:09:36;5.57;;;1.50;;
21581;SDS011;10952;50.836;4.348;2023-03-14T16:12:01;5.03;;;1.60;;
21581;SDS011;10952;50.836;4.348;2023-03-14T16:14:29;5.23;;;1.53;;
21581;SDS011;10952;50.836;4.348;2023-03-14T16:16:55;4.00;;;1.60;;
21581;SDS011;10952;50.836;4.348;2023-03-14T16:19:24;4.13;;;1.40;;
21581;SDS011;10952;50.836;4.348;2023-03-14T16:21:51;5.20;;;1.53;;
21581;SDS011;10952;50.836;4.348;2023-03-14T16:24:17;4.83;;;1.80;;
21581;SDS011;10952;50.836;4.348;2023-03-14T16:26:43;3.30;;;1.30;;
21581;SDS011;10952;50.836;4.348;2023-03-14T16:29:09;4.90;;;1.60;;
21581;SDS011;10952;50.836;4.348;2023-03-14T16:31:35;4.33;;;1.50;;
21581;SDS011;10952;50.836;4.348;2023-03-14T16:34:09;6.20;;;1.43;;
21581;SDS011;10952;50.836;4.348;2023-03-14T16:36:35;5.97;;;2.30;;
21581;SDS011;10952;50.836;4.348;2023-03-14T16:39:01;15.10;;;2.37;;
21581;SDS011;10952;50.836;4.348;2023-03-14T16:41:27;7.50;;;1.43;;
21581;SDS011;10952;50.836;4.348;2023-03-14T16:43:56;7.27;;;1.50;;
21581;SDS011;10952;50.836;4.348;2023-03-14T16:46:22;6.90;;;2.20;;
21581;SDS011;10952;50.836;4.348;2023-03-14T16:48:49;8.40;;;2.00;;
21581;SDS011;10952;50.836;4.348;2023-03-14T16:51:15;11.13;;;2.30;;
21581;SDS011;10952;50.836;4.348;2023-03-14T16:53:41;8.43;;;3.03;;
21581;SDS011;10952;50.836;4.348;2023-03-14T16:56:08;7.63;;;1.90;;
21581;SDS011;10952;50.836;4.348;2023-03-14T16:58:34;7.07;;;2.50;;
21581;SDS011;10952;50.836;4.348;2023-03-14T17:01:03;7.73;;;2.07;;
21581;SDS011;10952;50.836;4.348;2023-03-14T17:03:40;12.90;;;3.20;;
21581;SDS011;10952;50.836;4.348;2023-03-14T17:06:07;9.33;;;2.57;;
21581;SDS011;10952;50.836;4.348;2023-03-14T17:08:36;10.67;;;2.30;;
21581;SDS011;10952;50.836;4.348;2023-03-14T17:11:01;11.93;;;2.97;;
21581;SDS011;10952;50.836;4.348;2023-03-14T17:13:27;8.27;;;3.00;;
21581;SDS011;10952;50.836;4.348;2023-03-14T17:15:54;9.90;;;2.20;;
21581;SDS011;10952;50.836;4.348;2023-03-14T17:18:21;11.90;;;2.70;;
21581;SDS011;10952;50.836;4.348;2023-03-14T17:20:47;13.83;;;2.40;;
21581;SDS011;10952;50.836;4.348;2023-03-14T17:23:13;7.83;;;2.27;;
21581;SDS011;10952;50.836;4.348;2023-03-14T17:25:40;12.47;;;2.97;;
21581;SDS011;10952;50.836;4.348;2023-03-14T17:28:05;12.93;;;2.90;;
21581;SDS011;10952;50.836;4.348;2023-03-14T17:30:31;7.50;;;2.60;;
21581;SDS011;10952;50.836;4.348;2023-03-14T17:32:58;15.00;;;3.30;;
21581;SDS011;10952;50.836;4.348;2023-03-14T17:35:23;8.20;;;2.40;;
21581;SDS011;10952;50.836;4.348;2023-03-14T17:37:49;10.23;;;2.20;;
21581;SDS011;10952;50.836;4.348;2023-03-14T17:40:15;16.87;;;2.63;;
21581;SDS011;10952;50.836;4.348;2023-03-14T17:42:41;7.10;;;1.93;;
21581;SDS011;10952;50.836;4.348;2023-03-14T17:45:07;16.10;;;3.20;;
21581;SDS011;10952;50.836;4.348;2023-03-14T17:47:33;14.87;;;2.60;;
21581;SDS011;10952;50.836;4.348;2023-03-14T17:49:58;12.47;;;2.73;;
21581;SDS011;10952;50.836;4.348;2023-03-14T17:52:29;18.67;;;2.60;;
21581;SDS011;10952;50.836;4.348;2023-03-14T17:54:56;17.47;;;2.83;;
21581;SDS011;10952;50.836;4.348;2023-03-14T17:57:22;18.07;;;3.07;;
21581;SDS011;10952;50.836;4.348;2023-03-14T17:59:48;9.90;;;2.47;;
21581;SDS011;10952;50.836;4.348;2023-03-14T18:02:14;14.83;;;3.40;;
21581;SDS011;10952;50.836;4.348;2023-03-14T18:04:40;12.00;;;3.07;;
21581;SDS011;10952;50.836;4.348;2023-03-14T18:07:05;17.70;;;3.63;;
21581;SDS011;10952;50.836;4.348;2023-03-14T18:09:31;23.43;;;6.87;;
21581;SDS011;10952;50.836;4.348;2023-03-14T18:11:57;17.63;;;4.13;;
21581;SDS011;10952;50.836;4.348;2023-03-14T18:14:22;15.10;;;3.50;;
21581;SDS011;10952;50.836;4.348;2023-03-14T18:16:48;13.70;;;4.43;;
21581;SDS011;10952;50.836;4.348;2023-03-14T18:19:15;18.33;;;3.60;;
21581;SDS011;10952;50.836;4.348;2023-03-14T18:21:41;14.40;;;3.93;;